createdAt,value
2018-03-28T00:00:15.073Z,6.60
2018-03-28T00:02:42.630Z,6.50
2018-03-28T00:05:10.200Z,6.50
2018-03-28T00:07:38.602Z,6.40
2018-03-28T00:10:06.955Z,6.40
2018-03-28T00:12:34.544Z,6.40
2018-03-28T00:15:02.466Z,6.40
2018-03-28T00:17:31.551Z,6.30
2018-03-28T00:19:59.133Z,6.30
2018-03-28T00:22:27.491Z,6.40
2018-03-28T00:24:55.066Z,6.40
2018-03-28T00:27:24.175Z,6.40
2018-03-28T00:29:52.572Z,6.40
2018-03-28T00:32:20.160Z,6.30
2018-03-28T00:34:47.735Z,6.30
2018-03-28T00:37:15.341Z,6.30
2018-03-28T00:39:43.689Z,6.40
2018-03-28T00:42:11.260Z,6.40
2018-03-28T00:44:38.920Z,6.40
2018-03-28T00:47:07.387Z,6.50
2018-03-28T00:49:35.732Z,6.40
2018-03-28T00:52:03.329Z,6.30
2018-03-28T00:54:31.703Z,6.40
2018-03-28T00:56:59.317Z,6.40
2018-03-28T00:59:26.895Z,6.60
2018-03-28T01:01:54.517Z,6.60
2018-03-28T01:04:22.845Z,6.60
2018-03-28T01:06:50.429Z,6.60
2018-03-28T01:09:18.286Z,6.60
2018-03-28T01:11:45.850Z,6.50
2018-03-28T01:14:13.485Z,6.40
2018-03-28T01:16:41.378Z,6.40
2018-03-28T01:19:08.925Z,6.40
2018-03-28T01:21:36.470Z,6.40
2018-03-28T01:24:04.066Z,6.40
2018-03-28T01:26:32.453Z,6.60
2018-03-28T01:29:00.814Z,6.60
2018-03-28T01:31:29.167Z,6.50
2018-03-28T01:33:56.942Z,6.40
2018-03-28T01:36:24.506Z,6.50
2018-03-28T01:38:52.076Z,6.50
2018-03-28T01:41:20.462Z,6.60
2018-03-28T01:43:48.816Z,6.50
2018-03-28T01:46:16.396Z,6.40
2018-03-28T01:48:44.768Z,6.60
2018-03-28T01:51:13.202Z,6.60
2018-03-28T01:53:40.780Z,6.60
2018-03-28T01:56:08.636Z,6.70
2018-03-28T01:58:36.193Z,6.70
2018-03-28T02:01:03.766Z,6.80
2018-03-28T02:03:31.357Z,6.80
2018-03-28T02:05:59.681Z,6.60
2018-03-28T02:08:27.361Z,6.60
2018-03-28T02:10:54.998Z,6.60
2018-03-28T02:13:28.829Z,6.70
2018-03-28T02:15:56.651Z,6.60
2018-03-28T02:18:24.970Z,6.50
2018-03-28T02:20:52.501Z,6.50
2018-03-28T02:23:20.381Z,6.60
2018-03-28T02:25:47.914Z,6.60
2018-03-28T02:28:15.431Z,6.70
2018-03-28T02:30:43.260Z,6.60
2018-03-28T02:33:10.787Z,6.60
2018-03-28T02:35:39.073Z,6.70
2018-03-28T02:38:06.652Z,6.60
2018-03-28T02:40:34.172Z,6.70
2018-03-28T02:43:02.493Z,6.60
2018-03-28T02:45:30.065Z,6.60
2018-03-28T02:47:57.609Z,6.70
2018-03-28T02:50:25.164Z,6.70
2018-03-28T02:52:52.732Z,6.70
2018-03-28T02:55:20.283Z,6.70
2018-03-28T02:57:47.825Z,6.70
2018-03-28T03:00:15.401Z,6.60
2018-03-28T03:02:42.972Z,6.60
2018-03-28T03:05:10.487Z,6.60
2018-03-28T03:07:38.281Z,6.50
2018-03-28T03:10:05.804Z,6.50
2018-03-28T03:12:34.093Z,6.60
2018-03-28T03:15:01.987Z,6.50
2018-03-28T03:17:29.508Z,6.50
2018-03-28T03:19:57.793Z,6.60
2018-03-28T03:22:25.368Z,6.60
2018-03-28T03:24:52.912Z,6.70
2018-03-28T03:27:20.444Z,6.70
2018-03-28T03:29:49.023Z,6.40
2018-03-28T03:32:16.719Z,6.30
2018-03-28T03:34:44.269Z,6.20
2018-03-28T03:37:11.831Z,6.10
2018-03-28T03:39:39.356Z,6.10
2018-03-28T03:42:06.898Z,6.10
2018-03-28T03:44:34.559Z,6.00
2018-03-28T03:47:02.092Z,5.90
2018-03-28T03:49:29.606Z,5.90
2018-03-28T03:51:57.924Z,5.90
2018-03-28T03:54:25.452Z,5.90
2018-03-28T03:56:53.031Z,5.90
2018-03-28T03:59:20.896Z,5.90
2018-03-28T04:01:48.411Z,5.90
2018-03-28T04:04:16.744Z,6.00
2018-03-28T04:06:44.299Z,5.90
2018-03-28T04:09:11.818Z,5.90
2018-03-28T04:11:40.102Z,5.90
2018-03-28T04:14:07.913Z,5.80
2018-03-28T04:16:35.458Z,5.90
2018-03-28T04:19:02.992Z,5.90
2018-03-28T04:21:30.868Z,5.90
2018-03-28T04:23:58.400Z,5.90
2018-03-28T04:26:26.699Z,5.90
2018-03-28T04:28:54.895Z,5.90
2018-03-28T04:31:22.416Z,5.90
2018-03-28T04:33:49.998Z,6.00
2018-03-28T04:36:18.592Z,6.10
2018-03-28T04:38:46.113Z,6.20
2018-03-28T04:41:13.644Z,6.20
2018-03-28T04:43:42.129Z,6.20
2018-03-28T04:46:09.626Z,6.20
2018-03-28T04:48:37.144Z,6.10
2018-03-28T04:51:05.071Z,6.10
2018-03-28T04:53:32.718Z,6.00
2018-03-28T04:56:00.248Z,6.00
2018-03-28T04:58:28.874Z,6.10
2018-03-28T05:00:56.432Z,6.00
2018-03-28T05:03:23.946Z,6.10
2018-03-28T05:05:52.365Z,6.10
2018-03-28T05:08:19.920Z,6.10
2018-03-28T05:10:47.461Z,6.10
2018-03-28T05:13:15.356Z,6.10
2018-03-28T05:15:42.897Z,6.10
2018-03-28T05:18:10.420Z,6.10
2018-03-28T05:20:39.053Z,6.30
2018-03-28T05:23:06.593Z,6.20
2018-03-28T05:25:34.645Z,6.30
2018-03-28T05:28:02.771Z,6.40
2018-03-28T05:30:32.340Z,6.40
2018-03-28T05:33:00.003Z,6.40
2018-03-28T05:35:27.885Z,6.30
2018-03-28T05:37:55.433Z,6.20
2018-03-28T05:40:22.956Z,6.20
2018-03-28T05:42:51.572Z,6.20
2018-03-28T05:45:19.110Z,6.20
2018-03-28T05:47:46.683Z,6.30
2018-03-28T05:50:15.063Z,6.20
2018-03-28T05:52:42.597Z,6.20
2018-03-28T05:55:10.909Z,6.20
2018-03-28T05:57:38.459Z,6.10
2018-03-28T06:00:06.715Z,6.20
2018-03-28T06:02:34.295Z,6.30
2018-03-28T06:05:01.882Z,6.30
2018-03-28T06:07:29.420Z,6.50
2018-03-28T06:09:56.961Z,6.60
2018-03-28T06:12:24.932Z,6.70
2018-03-28T06:14:52.447Z,6.70
2018-03-28T06:17:20.048Z,6.80
2018-03-28T06:19:47.914Z,6.70
2018-03-28T06:22:15.445Z,6.70
2018-03-28T06:24:43.947Z,6.50
2018-03-28T06:27:11.764Z,6.50
2018-03-28T06:29:39.296Z,6.40
2018-03-28T06:32:06.816Z,6.50
2018-03-28T06:34:34.368Z,6.50
2018-03-28T06:37:02.676Z,6.40
2018-03-28T06:39:30.207Z,6.30
2018-03-28T06:41:57.762Z,6.40
2018-03-28T06:44:26.076Z,6.40
2018-03-28T06:46:53.634Z,6.30
2018-03-28T06:49:21.204Z,6.30
2018-03-28T06:51:48.736Z,6.30
2018-03-28T06:54:16.268Z,6.40
2018-03-28T06:56:44.893Z,6.40
2018-03-28T06:59:12.431Z,6.40
2018-03-28T07:01:39.957Z,6.40
2018-03-28T07:04:08.325Z,6.50
2018-03-28T07:06:36.650Z,6.50
2018-03-28T07:09:04.190Z,6.50
2018-03-28T07:11:31.762Z,6.60
2018-03-28T07:13:59.300Z,6.50
2018-03-28T07:16:26.842Z,6.60
2018-03-28T07:18:55.157Z,6.50
2018-03-28T07:21:22.673Z,6.50
2018-03-28T07:23:50.302Z,6.60
2018-03-28T07:26:18.135Z,6.60
2018-03-28T07:28:45.657Z,6.60
2018-03-28T07:31:13.950Z,6.70
2018-03-28T07:33:42.511Z,6.80
2018-03-28T07:36:10.042Z,6.80
2018-03-28T07:38:37.580Z,6.90
2018-03-28T07:41:05.471Z,7.00
2018-03-28T07:43:33.006Z,7.10
2018-03-28T07:46:00.544Z,7.10
2018-03-28T07:48:28.432Z,7.20
2018-03-28T07:50:55.979Z,7.40
2018-03-28T07:53:23.508Z,7.30
2018-03-28T07:55:51.831Z,7.60
2018-03-28T07:58:19.348Z,7.60
2018-03-28T08:00:47.627Z,7.80
2018-03-28T08:03:15.219Z,7.80
2018-03-28T08:05:42.738Z,7.90
2018-03-28T08:08:11.040Z,8.00
2018-03-28T08:10:38.608Z,7.90
2018-03-28T08:13:06.150Z,8.10
2018-03-28T08:15:33.935Z,8.20
2018-03-28T08:18:02.427Z,8.30
2018-03-28T08:20:29.975Z,8.20
2018-03-28T08:22:57.517Z,8.00
2018-03-28T08:25:25.087Z,8.10
2018-03-28T08:27:52.648Z,8.20
2018-03-28T08:30:20.208Z,8.20
2018-03-28T08:32:48.086Z,8.20
2018-03-28T08:35:15.637Z,8.20
2018-03-28T08:37:43.403Z,8.00
2018-03-28T08:40:11.255Z,8.00
2018-03-28T08:42:39.011Z,8.00
2018-03-28T08:45:06.549Z,8.00
2018-03-28T08:47:35.115Z,8.20
2018-03-28T08:50:03.448Z,8.20
2018-03-28T08:52:31.045Z,8.10
2018-03-28T08:54:58.984Z,8.30
2018-03-28T08:57:26.539Z,8.30
2018-03-28T08:59:54.056Z,8.50
2018-03-28T09:02:21.982Z,8.50
2018-03-28T09:04:50.263Z,8.60
2018-03-28T09:07:19.324Z,8.80
2018-03-28T09:09:47.188Z,8.80
2018-03-28T09:12:14.959Z,9.00
2018-03-28T09:14:42.526Z,9.10
2018-03-28T09:17:10.360Z,9.20
2018-03-28T09:19:37.876Z,9.30
2018-03-28T09:22:06.166Z,9.20
2018-03-28T09:24:34.498Z,9.30
2018-03-28T09:27:02.203Z,9.20
2018-03-28T09:29:30.488Z,9.20
2018-03-28T09:31:58.806Z,9.30
2018-03-28T09:34:26.355Z,9.20
2018-03-28T09:36:53.886Z,9.00
2018-03-28T09:39:22.307Z,9.10
2018-03-28T09:41:49.841Z,9.00
2018-03-28T09:44:17.350Z,9.10
2018-03-28T09:46:46.498Z,9.00
2018-03-28T09:49:14.154Z,9.00
2018-03-28T09:51:41.793Z,9.20
2018-03-28T09:54:10.415Z,9.30
2018-03-28T09:56:37.958Z,9.20
2018-03-28T09:59:05.687Z,9.40
2018-03-28T10:01:34.301Z,9.50
2018-03-28T10:04:07.506Z,9.50
2018-03-28T10:06:35.224Z,9.80
2018-03-28T10:09:04.332Z,9.80
2018-03-28T10:11:31.896Z,9.80
2018-03-28T10:13:59.743Z,10.10
2018-03-28T10:16:28.055Z,9.90
2018-03-28T10:18:55.586Z,9.80
2018-03-28T10:21:23.981Z,9.90
2018-03-28T10:23:51.522Z,9.80
2018-03-28T10:26:19.833Z,9.90
2018-03-28T10:28:47.727Z,9.90
2018-03-28T10:31:15.260Z,9.90
2018-03-28T10:33:42.773Z,9.90
2018-03-28T10:36:11.204Z,9.70
2018-03-28T10:38:38.730Z,9.70
2018-03-28T10:41:06.274Z,9.50
2018-03-28T10:43:34.652Z,9.50
2018-03-28T10:46:02.952Z,9.50
2018-03-28T10:48:30.510Z,9.40
2018-03-28T10:50:58.077Z,9.70
2018-03-28T10:53:25.606Z,9.60
2018-03-28T10:55:53.892Z,9.90
2018-03-28T10:58:21.875Z,9.80
2018-03-28T11:00:49.401Z,9.90
2018-03-28T11:03:17.692Z,10.10
2018-03-28T11:05:45.269Z,10.00
2018-03-28T11:08:12.811Z,10.00
2018-03-28T11:10:40.380Z,10.00
2018-03-28T11:13:07.930Z,10.10
2018-03-28T11:15:35.471Z,10.10
2018-03-28T11:18:03.774Z,9.60
2018-03-28T11:20:31.671Z,9.50
2018-03-28T11:22:59.211Z,9.70
2018-03-28T11:25:26.756Z,9.70
2018-03-28T11:27:54.778Z,9.60
2018-03-28T11:30:22.305Z,9.60
2018-03-28T11:32:49.823Z,9.60
2018-03-28T11:35:18.397Z,9.60
2018-03-28T11:37:46.694Z,9.80
2018-03-28T11:40:15.068Z,9.80
2018-03-28T11:42:43.042Z,10.10
2018-03-28T11:45:10.611Z,10.20
2018-03-28T11:47:38.189Z,10.10
2018-03-28T11:50:06.051Z,10.10
2018-03-28T11:52:33.605Z,10.20
2018-03-28T11:55:01.304Z,10.00
2018-03-28T11:57:29.120Z,9.90
2018-03-28T11:59:56.649Z,9.90
2018-03-28T12:02:24.958Z,9.80
2018-03-28T12:04:52.609Z,9.80
2018-03-28T12:07:20.175Z,9.60
2018-03-28T12:09:47.697Z,9.60
2018-03-28T12:12:16.029Z,9.30
2018-03-28T12:14:43.570Z,9.30
2018-03-28T12:17:11.126Z,9.10
2018-03-28T12:19:38.941Z,9.00
2018-03-28T12:22:06.475Z,8.90
2018-03-28T12:24:34.052Z,8.90
2018-03-28T12:27:01.912Z,9.00
2018-03-28T12:29:29.445Z,9.00
2018-03-28T12:31:57.030Z,9.10
2018-03-28T12:34:24.655Z,9.40
2018-03-28T12:36:52.233Z,9.50
2018-03-28T12:39:19.780Z,9.60
2018-03-28T12:41:47.336Z,9.60
2018-03-28T12:44:14.900Z,9.70
2018-03-28T12:46:42.442Z,10.00
2018-03-28T12:49:10.016Z,10.20
2018-03-28T12:51:37.542Z,10.40
2018-03-28T12:54:05.129Z,10.50
2018-03-28T12:56:32.691Z,10.60
2018-03-28T12:59:00.244Z,10.60
2018-03-28T13:01:27.785Z,10.70
2018-03-28T13:03:55.335Z,10.60
2018-03-28T13:06:22.858Z,10.40
2018-03-28T13:08:50.477Z,10.10
2018-03-28T13:11:18.040Z,10.00
2018-03-28T13:13:45.577Z,9.30
2018-03-28T13:16:13.158Z,9.10
2018-03-28T13:18:40.810Z,9.10
2018-03-28T13:21:08.332Z,9.00
2018-03-28T13:23:36.669Z,9.20
2018-03-28T13:26:04.515Z,9.10
2018-03-28T13:28:32.045Z,9.30
2018-03-28T13:30:59.623Z,9.20
2018-03-28T13:33:27.305Z,9.30
2018-03-28T13:35:54.868Z,9.40
2018-03-28T13:38:22.416Z,9.50
2018-03-28T13:40:50.260Z,9.30
2018-03-28T13:43:17.782Z,9.30
2018-03-28T13:45:45.445Z,9.30
2018-03-28T13:48:13.061Z,9.30
2018-03-28T13:50:41.015Z,9.30
2018-03-28T13:53:08.527Z,9.20
2018-03-28T13:55:36.345Z,9.20
2018-03-28T13:58:03.995Z,9.20
2018-03-28T14:00:31.514Z,9.10
2018-03-28T14:02:59.846Z,9.00
2018-03-28T14:05:27.494Z,8.90
2018-03-28T14:07:55.024Z,9.00
2018-03-28T14:10:23.356Z,8.90
2018-03-28T14:12:50.892Z,8.80
2018-03-28T14:15:18.429Z,8.70
2018-03-28T14:17:46.244Z,8.50
2018-03-28T14:20:13.758Z,8.20
2018-03-28T14:22:41.278Z,8.30
2018-03-28T14:25:08.826Z,8.00
2018-03-28T14:27:37.104Z,7.90
2018-03-28T14:30:04.726Z,7.90
2018-03-28T14:32:32.383Z,8.10
2018-03-28T14:34:59.952Z,8.30
2018-03-28T14:37:27.486Z,8.40
2018-03-28T14:39:55.174Z,8.50
2018-03-28T14:42:22.700Z,8.60
2018-03-28T14:44:50.223Z,8.60
2018-03-28T14:47:18.850Z,8.10
2018-03-28T14:49:46.378Z,8.00
2018-03-28T14:52:14.672Z,7.50
2018-03-28T14:54:42.481Z,7.50
2018-03-28T14:57:10.019Z,7.30
2018-03-28T14:59:37.530Z,7.00
2018-03-28T15:02:09.733Z,7.00
2018-03-28T15:04:37.501Z,6.90
2018-03-28T15:07:05.040Z,7.10
2018-03-28T15:09:32.931Z,7.30
2018-03-28T15:12:00.495Z,7.40
2018-03-28T15:14:28.018Z,7.50
2018-03-28T15:16:55.567Z,7.60
2018-03-28T15:19:23.862Z,7.60
2018-03-28T15:21:51.476Z,7.60
2018-03-28T15:24:20.554Z,7.60
2018-03-28T15:26:48.100Z,7.60
2018-03-28T15:29:15.629Z,7.40
2018-03-28T15:31:43.511Z,7.40
2018-03-28T15:34:11.038Z,7.40
2018-03-28T15:36:39.345Z,7.20
2018-03-28T15:39:07.227Z,7.20
2018-03-28T15:41:34.748Z,7.20
2018-03-28T15:44:03.041Z,7.10
2018-03-28T15:46:30.634Z,7.10
2018-03-28T15:48:58.157Z,7.20
2018-03-28T15:51:25.686Z,7.20
2018-03-28T15:53:54.264Z,7.30
2018-03-28T15:56:22.601Z,7.30
2018-03-28T15:58:50.150Z,7.30
2018-03-28T16:01:18.009Z,7.30
2018-03-28T16:03:45.974Z,7.20
2018-03-28T16:06:13.504Z,7.20
2018-03-28T16:08:41.128Z,7.40
2018-03-28T16:11:08.602Z,7.40
2018-03-28T16:13:36.207Z,7.30
2018-03-28T16:16:04.085Z,7.20
2018-03-28T16:18:40.312Z,7.10
2018-03-28T16:21:08.229Z,7.20
2018-03-28T16:23:35.754Z,7.30
2018-03-28T16:26:03.426Z,7.30
2018-03-28T16:28:30.994Z,7.30
2018-03-28T16:30:58.558Z,7.20
2018-03-28T16:33:26.081Z,7.10
2018-03-28T16:35:53.744Z,7.10
2018-03-28T16:38:21.313Z,7.00
2018-03-28T16:40:48.847Z,7.00
2018-03-28T16:43:17.234Z,7.00
2018-03-28T16:45:44.775Z,7.00
2018-03-28T16:48:13.181Z,7.00
2018-03-28T16:50:41.064Z,6.90
2018-03-28T16:53:08.713Z,6.90
2018-03-28T16:55:37.219Z,6.80
2018-03-28T16:58:05.983Z,6.80
2018-03-28T17:00:33.538Z,6.80
2018-03-28T17:03:01.337Z,6.90
2018-03-28T17:05:28.928Z,6.80
2018-03-28T17:07:57.351Z,6.60
2018-03-28T17:10:24.893Z,6.60
2018-03-28T17:12:52.457Z,6.60
2018-03-28T17:15:19.979Z,6.70
2018-03-28T17:17:48.281Z,6.50
2018-03-28T17:20:15.922Z,6.50
2018-03-28T17:22:44.213Z,6.40
2018-03-28T17:25:11.794Z,6.40
2018-03-28T17:27:39.462Z,6.40
2018-03-28T17:30:06.997Z,6.40
2018-03-28T17:32:34.667Z,6.40
2018-03-28T17:35:02.564Z,6.50
2018-03-28T17:37:30.116Z,6.50
2018-03-28T17:39:57.681Z,6.40
2018-03-28T17:42:25.534Z,6.30
2018-03-28T17:44:53.059Z,6.30
2018-03-28T17:47:21.384Z,6.30
2018-03-28T17:49:49.332Z,6.30
2018-03-28T17:52:20.620Z,6.30
2018-03-28T17:54:48.233Z,6.30
2018-03-28T17:57:15.801Z,6.30
2018-03-28T17:59:48.806Z,6.30
2018-03-28T18:02:16.657Z,6.20
2018-03-28T18:04:44.250Z,6.20
2018-03-28T18:07:11.766Z,6.20
2018-03-28T18:09:39.341Z,6.10
2018-03-28T18:12:06.885Z,6.00
2018-03-28T18:14:34.402Z,6.00
2018-03-28T18:17:03.178Z,5.90
2018-03-28T18:19:31.489Z,5.90
2018-03-28T18:21:59.007Z,5.80
2018-03-28T18:24:27.642Z,5.90
2018-03-28T18:26:55.177Z,5.80
2018-03-28T18:29:22.758Z,5.80
2018-03-28T18:31:50.640Z,5.80
2018-03-28T18:34:18.183Z,5.70
2018-03-28T18:36:45.707Z,5.70
2018-03-28T18:39:14.044Z,5.60
2018-03-28T18:41:41.573Z,5.60
2018-03-28T18:44:09.158Z,5.60
2018-03-28T18:46:37.099Z,5.60
2018-03-28T18:49:04.618Z,5.50
2018-03-28T18:51:32.968Z,5.50
2018-03-28T18:54:00.823Z,5.40
2018-03-28T18:56:28.377Z,5.40
2018-03-28T18:58:55.903Z,5.40
2018-03-28T19:01:23.786Z,5.30
2018-03-28T19:03:51.316Z,5.20
2018-03-28T19:06:19.622Z,5.20
2018-03-28T19:08:47.493Z,5.10
2018-03-28T19:11:15.022Z,5.20
2018-03-28T19:13:42.608Z,5.10
2018-03-28T19:16:10.172Z,5.10
2018-03-28T19:18:37.692Z,5.00
2018-03-28T19:21:05.991Z,4.90
2018-03-28T19:23:34.306Z,4.80
2018-03-28T19:26:01.953Z,4.80
2018-03-28T19:28:29.474Z,4.80
2018-03-28T19:30:57.074Z,4.80
2018-03-28T19:33:24.597Z,4.80
2018-03-28T19:35:52.176Z,4.80
2018-03-28T19:38:20.045Z,4.70
2018-03-28T19:40:47.691Z,4.60
2018-03-28T19:43:15.256Z,4.50
2018-03-28T19:45:43.135Z,4.50
2018-03-28T19:48:10.690Z,4.50
2018-03-28T19:50:38.335Z,4.50
2018-03-28T19:53:06.299Z,4.40
2018-03-28T19:55:34.786Z,4.30
2018-03-28T19:58:02.336Z,4.30
2018-03-28T20:00:30.271Z,4.40
2018-03-28T20:02:57.892Z,4.40
2018-03-28T20:05:25.537Z,4.30
2018-03-28T20:07:53.887Z,4.30
2018-03-28T20:10:21.621Z,4.30
2018-03-28T20:12:49.229Z,4.30
2018-03-28T20:15:17.310Z,4.20
2018-03-28T20:17:44.841Z,4.20
2018-03-28T20:20:12.428Z,4.20
2018-03-28T20:22:40.020Z,4.10
2018-03-28T20:25:07.532Z,4.10
2018-03-28T20:27:35.108Z,4.00
2018-03-28T20:30:03.785Z,3.70
2018-03-28T20:32:31.345Z,3.70
2018-03-28T20:34:58.906Z,3.60
2018-03-28T20:37:26.734Z,3.50
2018-03-28T20:39:55.027Z,3.40
2018-03-28T20:42:22.602Z,3.40
2018-03-28T20:44:50.167Z,3.40
2018-03-28T20:47:17.728Z,3.40
2018-03-28T20:49:45.261Z,3.40
2018-03-28T20:52:13.164Z,3.30
2018-03-28T20:54:40.698Z,3.30
2018-03-28T20:57:08.273Z,3.30
2018-03-28T20:59:36.083Z,3.30
2018-03-28T21:02:04.370Z,3.20
2018-03-28T21:04:32.665Z,3.20
2018-03-28T21:07:00.563Z,3.10
2018-03-28T21:09:28.077Z,3.20
2018-03-28T21:11:55.595Z,3.20
2018-03-28T21:14:23.154Z,3.20
2018-03-28T21:16:50.667Z,3.10
2018-03-28T21:19:18.199Z,3.10
2018-03-28T21:21:46.527Z,3.00
2018-03-28T21:24:14.048Z,2.90
2018-03-28T21:26:41.569Z,2.90
2018-03-28T21:29:09.399Z,2.80
2018-03-28T21:31:36.921Z,2.80
2018-03-28T21:34:05.215Z,2.70
2018-03-28T21:36:34.328Z,2.70
2018-03-28T21:39:01.867Z,2.70
2018-03-28T21:41:29.382Z,2.70
2018-03-28T21:43:57.722Z,2.70
2018-03-28T21:46:25.268Z,2.60
2018-03-28T21:48:52.799Z,2.70
2018-03-28T21:51:21.407Z,2.70
2018-03-28T21:53:48.933Z,2.70
2018-03-28T21:56:17.254Z,2.80
2018-03-28T21:58:44.905Z,2.70
2018-03-28T22:01:12.424Z,2.80
2018-03-28T22:03:40.746Z,2.80
2018-03-28T22:06:08.566Z,2.80
2018-03-28T22:08:36.959Z,2.90
2018-03-28T22:11:05.258Z,2.90
2018-03-28T22:13:32.861Z,2.90
2018-03-28T22:16:00.489Z,2.90
2018-03-28T22:18:28.028Z,2.90
2018-03-28T22:20:55.823Z,2.90
2018-03-28T22:23:23.379Z,3.00
2018-03-28T22:25:50.914Z,2.90
2018-03-28T22:28:18.467Z,2.90
2018-03-28T22:30:46.049Z,2.90
2018-03-28T22:33:13.626Z,2.90
2018-03-28T22:35:41.474Z,2.90
2018-03-28T22:38:09.044Z,2.90
2018-03-28T22:40:36.585Z,2.90
2018-03-28T22:43:04.143Z,2.80
2018-03-28T22:45:31.666Z,2.80
2018-03-28T22:47:59.983Z,2.80
2018-03-28T22:50:27.534Z,2.70
2018-03-28T22:52:55.437Z,2.80
2018-03-28T22:55:22.960Z,2.80
2018-03-28T22:57:50.623Z,2.70
2018-03-28T23:00:18.410Z,2.70
2018-03-28T23:02:45.930Z,2.70
2018-03-28T23:05:13.799Z,2.70
2018-03-28T23:07:41.370Z,2.80
2018-03-28T23:10:08.875Z,2.80
2018-03-28T23:12:37.452Z,2.80
2018-03-28T23:15:05.744Z,2.70
2018-03-28T23:17:34.051Z,2.80
2018-03-28T23:20:01.596Z,2.70
2018-03-28T23:22:38.996Z,2.80
2018-03-28T23:25:06.660Z,2.80
2018-03-28T23:27:34.206Z,2.90
2018-03-28T23:30:02.199Z,2.90
2018-03-28T23:32:29.762Z,2.90
2018-03-28T23:34:57.272Z,2.90
2018-03-28T23:37:25.596Z,3.00
2018-03-28T23:39:53.418Z,2.90
2018-03-28T23:42:21.776Z,3.00
2018-03-28T23:44:50.786Z,3.00
2018-03-28T23:47:19.187Z,3.10
2018-03-28T23:49:46.764Z,3.00
2018-03-28T23:52:14.347Z,3.10
2018-03-28T23:54:41.907Z,3.00
2018-03-28T23:57:10.932Z,3.10
2018-03-28T23:59:39.232Z,3.10
